createdAt,value
2023-11-09T05:02:15.311Z,11.84
2023-11-09T05:04:41.864Z,11.81
2023-11-09T05:07:08.429Z,11.85
2023-11-09T05:09:35.014Z,11.76
2023-11-09T05:12:01.535Z,11.85
2023-11-09T05:14:28.065Z,11.83
2023-11-09T05:16:54.642Z,11.81
2023-11-09T05:19:21.190Z,11.63
2023-11-09T05:21:47.736Z,11.76
2023-11-09T05:24:14.256Z,11.81
2023-11-09T05:26:40.844Z,11.80
2023-11-09T05:29:07.384Z,11.93
2023-11-09T05:31:34.056Z,11.93
2023-11-09T05:34:00.672Z,12.02
2023-11-09T05:36:27.212Z,12.07
2023-11-09T05:38:53.752Z,12.14
2023-11-09T05:41:20.285Z,12.15
2023-11-09T05:43:46.802Z,12.12
2023-11-09T05:46:13.395Z,12.19
2023-11-09T05:48:40.051Z,12.15
2023-11-09T05:51:06.590Z,12.12
2023-11-09T05:53:33.211Z,12.04
2023-11-09T05:55:59.857Z,12.17
2023-11-09T05:58:26.511Z,11.21
2023-11-09T06:00:53.107Z,11.12
2023-11-09T06:03:19.986Z,10.78
2023-11-09T06:05:46.553Z,10.78
2023-11-09T06:08:13.094Z,10.64
2023-11-09T06:10:39.678Z,10.19
2023-11-09T06:13:06.236Z,10.27
2023-11-09T06:15:32.767Z,10.49
2023-11-09T06:17:59.449Z,10.61
2023-11-09T06:20:26.081Z,10.69
2023-11-09T06:22:52.604Z,10.46
2023-11-09T06:25:19.145Z,10.52
2023-11-09T06:27:45.709Z,10.52
2023-11-09T06:30:12.268Z,10.43
2023-11-09T06:32:38.940Z,10.78
2023-11-09T06:35:05.736Z,11.23
2023-11-09T06:37:32.376Z,10.87
2023-11-09T06:39:58.934Z,10.31
2023-11-09T06:42:25.494Z,10.53
2023-11-09T06:44:52.041Z,10.44
2023-11-09T06:47:18.649Z,10.23
2023-11-09T06:49:45.180Z,10.02
2023-11-09T06:52:11.772Z,10.02
2023-11-09T06:54:38.317Z,9.77
2023-11-09T06:57:04.912Z,9.73
2023-11-09T06:59:31.495Z,9.87
2023-11-09T07:01:58.044Z,9.88
2023-11-09T07:04:24.661Z,10.10
2023-11-09T07:06:51.313Z,10.21
2023-11-09T07:09:17.904Z,10.24
2023-11-09T07:11:44.448Z,10.38
2023-11-09T07:14:10.983Z,10.87
2023-11-09T07:16:37.584Z,10.92
2023-11-09T07:19:04.328Z,10.73
2023-11-09T07:21:30.924Z,10.49
2023-11-09T07:23:57.467Z,11.06
2023-11-09T07:26:23.992Z,10.88
2023-11-09T07:28:50.532Z,11.02
2023-11-09T07:31:17.156Z,11.33
2023-11-09T07:33:43.821Z,11.44
2023-11-09T07:36:10.463Z,11.72
2023-11-09T07:38:37.033Z,11.34
2023-11-09T07:41:03.592Z,11.44
2023-11-09T07:43:30.255Z,11.58
2023-11-09T07:45:56.824Z,11.29
2023-11-09T07:48:23.360Z,11.55
2023-11-09T07:50:49.941Z,11.79
2023-11-09T07:53:16.487Z,11.83
2023-11-09T07:55:43.121Z,11.38
2023-11-09T07:58:09.747Z,11.67
2023-11-09T08:00:36.352Z,11.81
2023-11-09T08:03:02.952Z,11.85
2023-11-09T08:05:29.553Z,11.83
2023-11-09T08:07:56.174Z,11.52
2023-11-09T08:10:22.865Z,11.66
2023-11-09T08:12:49.655Z,11.48
2023-11-09T08:15:16.236Z,11.61
2023-11-09T08:17:43.906Z,11.58
2023-11-09T08:20:11.058Z,11.74
2023-11-09T08:22:37.639Z,11.62
2023-11-09T08:25:04.218Z,11.69
2023-11-09T08:27:30.779Z,11.63
2023-11-09T08:29:57.309Z,11.64
2023-11-09T08:32:23.849Z,11.78
2023-11-09T08:34:50.468Z,12.04
2023-11-09T08:37:17.073Z,11.89
2023-11-09T08:39:43.597Z,11.96
2023-11-09T08:42:10.139Z,12.11
2023-11-09T08:44:36.673Z,11.83
2023-11-09T08:47:03.219Z,11.37
2023-11-09T08:49:29.757Z,11.63
2023-11-09T08:51:56.339Z,11.15
2023-11-09T08:54:22.923Z,11.47
2023-11-09T08:56:49.506Z,11.43
2023-11-09T08:59:16.067Z,11.20
2023-11-09T09:01:42.638Z,11.35
2023-11-09T09:04:09.263Z,11.31
2023-11-09T09:06:35.879Z,11.27
2023-11-09T09:09:02.415Z,11.11
2023-11-09T09:11:28.953Z,11.29
2023-11-09T09:13:55.491Z,11.21
2023-11-09T09:16:22.072Z,11.19
2023-11-09T09:18:48.756Z,10.93
2023-11-09T09:21:15.403Z,10.91
2023-11-09T09:23:41.953Z,11.07
2023-11-09T09:26:15.101Z,11.11
2023-11-09T09:28:43.028Z,11.20
2023-11-09T09:31:09.705Z,11.15
2023-11-09T09:33:36.270Z,11.08
2023-11-09T09:36:02.972Z,11.07
2023-11-09T09:38:29.592Z,10.88
2023-11-09T09:40:56.168Z,10.59
2023-11-09T09:43:22.787Z,10.68
2023-11-09T09:45:49.343Z,10.52
2023-11-09T09:48:15.986Z,10.64
2023-11-09T09:50:42.569Z,10.81
2023-11-09T09:53:09.129Z,10.75
2023-11-09T09:55:35.683Z,10.91
2023-11-09T09:58:02.274Z,10.85
2023-11-09T10:00:28.892Z,10.88
2023-11-09T10:02:55.485Z,10.66
2023-11-09T10:05:22.127Z,10.55
2023-11-09T10:07:48.750Z,10.68
2023-11-09T10:10:15.341Z,10.63
2023-11-09T10:12:41.889Z,10.62
2023-11-09T10:15:08.412Z,10.39
2023-11-09T10:17:35.086Z,10.29
2023-11-09T10:20:01.719Z,10.36
2023-11-09T10:22:28.313Z,10.58
2023-11-09T10:24:54.847Z,10.71
2023-11-09T10:27:21.422Z,10.55
2023-11-09T10:29:47.962Z,10.70
2023-11-09T10:32:14.552Z,10.56
2023-11-09T10:34:41.178Z,10.43
2023-11-09T10:37:07.755Z,10.42
2023-11-09T10:39:34.381Z,10.44
2023-11-09T10:42:01.390Z,10.30
2023-11-09T10:44:27.988Z,10.33
2023-11-09T10:46:54.701Z,10.24
2023-11-09T10:49:22.773Z,10.18
2023-11-09T10:51:49.322Z,10.20
2023-11-09T10:54:15.848Z,10.55
2023-11-09T10:56:42.411Z,10.47
2023-11-09T10:59:08.958Z,10.43
2023-11-09T11:01:35.603Z,10.53
2023-11-09T11:04:02.273Z,10.52
2023-11-09T11:06:28.851Z,10.33
2023-11-09T11:08:55.387Z,10.57
2023-11-09T11:11:21.940Z,10.29
2023-11-09T11:13:48.590Z,10.14
2023-11-09T11:16:15.225Z,10.31
2023-11-09T11:18:41.930Z,10.58
2023-11-09T11:21:08.511Z,10.14
2023-11-09T11:23:35.044Z,10.36
2023-11-09T11:26:03.383Z,10.66
2023-11-09T11:28:30.989Z,10.93
2023-11-09T11:30:57.639Z,11.02
2023-11-09T11:33:24.188Z,11.26
2023-11-09T11:35:50.895Z,11.37
2023-11-09T11:38:17.464Z,11.12
2023-11-09T11:40:44.166Z,11.19
2023-11-09T11:43:10.808Z,11.43
2023-11-09T11:45:37.355Z,11.47
2023-11-09T11:48:04.056Z,11.52
2023-11-09T11:50:33.196Z,11.51
2023-11-09T11:53:00.273Z,11.63
2023-11-09T11:55:26.957Z,11.62
2023-11-09T11:57:53.520Z,11.12
2023-11-09T12:00:20.098Z,11.05
2023-11-09T12:02:46.694Z,11.17
2023-11-09T12:05:13.253Z,11.28
2023-11-09T12:07:39.837Z,11.41
2023-11-09T12:10:06.455Z,11.21
2023-11-09T12:12:33.024Z,11.31
2023-11-09T12:14:59.567Z,11.73
2023-11-09T12:17:26.119Z,11.72
2023-11-09T12:19:52.763Z,11.54
2023-11-09T12:22:19.369Z,11.84
2023-11-09T12:24:45.930Z,11.57
2023-11-09T12:27:12.468Z,11.81
2023-11-09T12:29:39.009Z,11.83
2023-11-09T12:32:05.551Z,11.93
2023-11-09T12:34:32.094Z,12.06
2023-11-09T12:36:58.676Z,11.89
2023-11-09T12:39:25.311Z,11.64
2023-11-09T12:41:51.857Z,11.86
2023-11-09T12:44:18.404Z,11.74
2023-11-09T12:46:45.009Z,11.80
2023-11-09T12:49:11.600Z,11.86
2023-11-09T12:51:38.132Z,11.83
2023-11-09T12:54:04.699Z,11.45
2023-11-09T12:56:35.925Z,11.73
2023-11-09T12:59:03.035Z,11.84
2023-11-09T13:01:29.581Z,11.55
2023-11-09T13:03:56.203Z,11.44
2023-11-09T13:06:22.774Z,11.85
2023-11-09T13:08:49.344Z,11.80
2023-11-09T13:11:15.892Z,11.84
2023-11-09T13:13:42.509Z,11.79
2023-11-09T13:16:09.124Z,12.03
2023-11-09T13:18:35.677Z,11.63
2023-11-09T13:21:02.211Z,11.90
2023-11-09T13:23:28.866Z,11.75
2023-11-09T13:25:55.529Z,11.78
2023-11-09T13:28:22.166Z,11.86
2023-11-09T13:30:48.803Z,12.00
2023-11-09T13:33:15.461Z,12.00
2023-11-09T13:35:42.051Z,11.94
2023-11-09T13:38:08.604Z,12.05
2023-11-09T13:40:35.193Z,11.72
2023-11-09T13:43:01.770Z,11.98
2023-11-09T13:45:28.304Z,12.03
2023-11-09T13:47:54.985Z,12.17
2023-11-09T13:50:21.533Z,12.20
2023-11-09T13:52:48.126Z,11.98
2023-11-09T13:55:14.916Z,12.13
2023-11-09T13:57:41.538Z,11.99
2023-11-09T14:00:08.064Z,11.68
2023-11-09T14:02:35.673Z,11.43
2023-11-09T14:05:05.814Z,11.47
2023-11-09T14:07:34.670Z,10.98
2023-11-09T14:10:01.282Z,11.21
2023-11-09T14:12:27.817Z,11.47
2023-11-09T14:14:54.359Z,11.04
2023-11-09T14:17:20.906Z,11.45
2023-11-09T14:19:47.488Z,11.46
2023-11-09T14:22:14.056Z,11.61
2023-11-09T14:24:40.634Z,11.25
2023-11-09T14:27:07.151Z,11.64
2023-11-09T14:29:33.807Z,11.76
2023-11-09T14:32:00.354Z,11.81
2023-11-09T14:34:26.933Z,11.93
2023-11-09T14:36:53.605Z,11.73
2023-11-09T14:39:20.182Z,11.50
2023-11-09T14:41:46.738Z,11.90
2023-11-09T14:44:13.293Z,11.84
2023-11-09T14:46:39.846Z,11.51
2023-11-09T14:49:06.459Z,11.37
2023-11-09T14:51:32.998Z,11.66
2023-11-09T14:53:59.556Z,11.38
2023-11-09T14:56:26.077Z,11.33
2023-11-09T14:58:52.868Z,11.75
2023-11-09T15:01:19.543Z,11.27
2023-11-09T15:03:46.294Z,11.22
2023-11-09T15:06:13.309Z,11.36
2023-11-09T15:08:39.987Z,11.13
2023-11-09T15:11:06.706Z,11.17
2023-11-09T15:13:33.354Z,11.21
2023-11-09T15:15:59.941Z,11.40
2023-11-09T15:18:26.536Z,11.50
2023-11-09T15:20:53.121Z,11.70
2023-11-09T15:23:19.671Z,11.86
2023-11-09T15:25:46.231Z,11.99
2023-11-09T15:28:13.248Z,11.86
2023-11-09T15:30:39.792Z,12.00
2023-11-09T15:33:06.361Z,12.10
2023-11-09T15:35:32.956Z,12.01
2023-11-09T15:37:59.568Z,12.12
2023-11-09T15:41:09.715Z,12.12
2023-11-09T15:43:12.765Z,11.89
2023-11-09T15:45:39.343Z,12.11
2023-11-09T15:48:05.932Z,11.98
2023-11-09T15:50:32.506Z,12.06
2023-11-09T15:52:59.061Z,12.05
2023-11-09T15:55:25.697Z,11.92
2023-11-09T15:57:52.371Z,11.64
2023-11-09T16:00:19.048Z,11.55
2023-11-09T16:02:45.679Z,11.14
2023-11-09T16:05:12.286Z,11.40
2023-11-09T16:07:38.837Z,11.10
2023-11-09T16:10:06.005Z,11.24
2023-11-09T16:12:32.642Z,11.38
2023-11-09T16:14:59.222Z,11.23
2023-11-09T16:17:25.801Z,11.18
2023-11-09T16:19:52.401Z,11.50
2023-11-09T16:22:18.997Z,11.07
2023-11-09T16:24:45.557Z,10.89
2023-11-09T16:27:12.128Z,10.93
2023-11-09T16:29:38.685Z,10.91
2023-11-09T16:32:05.312Z,11.16
2023-11-09T16:34:31.993Z,11.19
2023-11-09T16:36:58.601Z,11.23
2023-11-09T16:39:25.165Z,11.36
2023-11-09T16:41:51.717Z,11.31
2023-11-09T16:44:18.254Z,11.32
2023-11-09T16:46:44.883Z,11.46
2023-11-09T16:49:11.475Z,11.28
2023-11-09T16:51:38.051Z,10.98
2023-11-09T16:54:04.583Z,11.16
2023-11-09T16:56:31.157Z,11.24
2023-11-09T16:58:57.707Z,11.14
2023-11-09T17:01:24.355Z,11.22
2023-11-09T17:03:50.988Z,11.20
2023-11-09T17:06:17.573Z,11.31
2023-11-09T17:08:44.271Z,11.56
2023-11-09T17:11:10.814Z,11.69
2023-11-09T17:13:37.394Z,11.35
2023-11-09T17:16:04.075Z,11.30
2023-11-09T17:18:30.715Z,11.59
2023-11-09T17:20:57.336Z,11.31
2023-11-09T17:23:23.986Z,11.56
2023-11-09T17:25:50.520Z,11.09
2023-11-09T17:28:17.154Z,11.27
2023-11-09T17:30:43.736Z,11.25
2023-11-09T17:33:10.359Z,11.63
2023-11-09T17:35:36.994Z,11.48
2023-11-09T17:38:03.552Z,11.34
2023-11-09T17:40:30.152Z,11.33
2023-11-09T17:42:56.748Z,11.25
2023-11-09T17:45:23.291Z,11.27
2023-11-09T17:47:49.879Z,11.19
2023-11-09T17:50:16.444Z,11.13
2023-11-09T17:52:43.004Z,11.42
2023-11-09T17:55:09.564Z,11.42
2023-11-09T17:57:36.086Z,11.28
2023-11-09T18:00:02.739Z,11.00
2023-11-09T18:02:29.504Z,11.29
2023-11-09T18:04:56.093Z,11.59
2023-11-09T18:07:22.683Z,11.36
2023-11-09T18:09:49.247Z,11.22
2023-11-09T18:12:15.800Z,11.44
2023-11-09T18:14:42.388Z,11.46
2023-11-09T18:17:08.977Z,11.61
2023-11-09T18:19:35.574Z,11.47
2023-11-09T18:22:02.117Z,10.79
2023-11-09T18:24:28.652Z,10.93
2023-11-09T18:26:55.213Z,11.34
2023-11-09T18:29:21.754Z,11.52
2023-11-09T18:31:48.372Z,10.96
2023-11-09T18:34:14.961Z,11.15
2023-11-09T18:36:41.517Z,11.50
2023-11-09T18:39:08.081Z,11.44
2023-11-09T18:41:34.643Z,11.47
2023-11-09T18:44:01.201Z,11.75
2023-11-09T18:46:27.865Z,11.84
2023-11-09T18:48:54.441Z,11.81
2023-11-09T18:51:21.013Z,11.84
2023-11-09T18:53:47.943Z,11.81
2023-11-09T18:56:14.540Z,11.38
2023-11-09T18:58:41.086Z,11.61
2023-11-09T19:01:07.666Z,11.86
2023-11-09T19:06:03.750Z,11.81
2023-11-09T19:08:30.360Z,11.90
2023-11-09T19:10:56.944Z,12.07
2023-11-09T19:13:23.596Z,12.06
2023-11-09T19:15:50.312Z,12.02
2023-11-09T19:18:17.411Z,12.19
2023-11-09T19:23:13.593Z,11.52
2023-11-09T19:25:40.130Z,11.04
2023-11-09T19:28:06.697Z,11.32
2023-11-09T19:30:33.388Z,11.05
2023-11-09T19:32:59.955Z,10.87
2023-11-09T19:35:26.579Z,10.85
2023-11-09T19:37:53.179Z,11.04
2023-11-09T19:40:19.736Z,10.72
2023-11-09T19:42:46.321Z,10.75
2023-11-09T19:45:12.958Z,10.73
2023-11-09T19:47:39.657Z,10.99
2023-11-09T19:50:06.311Z,11.34
2023-11-09T19:52:32.879Z,10.81
2023-11-09T19:54:59.455Z,10.99
2023-11-09T19:57:26.068Z,11.19
2023-11-09T19:59:52.624Z,11.45
2023-11-09T20:02:19.178Z,11.12
2023-11-09T20:04:45.723Z,11.52
2023-11-09T20:07:12.321Z,11.36
2023-11-09T20:09:38.780Z,11.64
2023-11-09T20:12:05.327Z,11.65
2023-11-09T20:14:31.748Z,11.35
2023-11-09T20:16:58.140Z,11.64
2023-11-09T20:19:24.573Z,11.81
2023-11-09T20:21:51.003Z,11.36
2023-11-09T20:24:17.447Z,11.25
2023-11-09T20:26:43.839Z,11.61
2023-11-09T20:29:10.234Z,11.75
2023-11-09T20:31:36.644Z,11.43
2023-11-09T20:34:03.112Z,11.71
2023-11-09T20:36:29.766Z,11.63
2023-11-09T20:38:56.198Z,11.72
2023-11-09T20:41:22.637Z,11.82
2023-11-09T20:43:49.030Z,11.61
2023-11-09T20:46:15.626Z,11.56
2023-11-09T20:48:42.181Z,11.36
2023-11-09T20:51:08.601Z,11.31
2023-11-09T20:53:35.049Z,11.68
2023-11-09T20:56:01.424Z,11.93
2023-11-09T20:58:27.821Z,11.93
2023-11-09T21:00:54.275Z,11.78
2023-11-09T21:03:20.832Z,11.63
2023-11-09T21:05:47.324Z,11.53
2023-11-09T21:08:13.870Z,11.40
2023-11-09T21:10:40.408Z,11.63
2023-11-09T21:13:06.999Z,11.62
2023-11-09T21:15:33.622Z,11.40
2023-11-09T21:18:00.319Z,11.43
2023-11-09T21:20:26.933Z,11.29
2023-11-09T21:22:53.490Z,11.35
2023-11-09T21:25:20.072Z,11.23
2023-11-09T21:27:46.650Z,11.44
2023-11-09T21:30:13.287Z,11.18
2023-11-09T21:32:39.902Z,10.81
2023-11-09T21:35:06.565Z,10.51
2023-11-09T21:37:33.122Z,10.55
2023-11-09T21:39:59.671Z,10.96
2023-11-09T21:42:26.266Z,10.80
2023-11-09T21:44:52.836Z,10.89
2023-11-09T21:47:19.389Z,10.71
2023-11-09T21:49:45.954Z,10.84
2023-11-09T21:52:12.496Z,11.08
2023-11-09T21:54:39.076Z,10.80
2023-11-09T21:57:05.701Z,11.01
2023-11-09T21:59:32.329Z,10.85
2023-11-09T22:01:58.943Z,10.69
2023-11-09T22:04:25.671Z,10.74
2023-11-09T22:06:52.326Z,11.14
2023-11-09T22:09:20.199Z,10.86
2023-11-09T22:11:48.581Z,11.13
2023-11-09T22:14:15.332Z,10.91
2023-11-09T22:16:41.971Z,10.80
2023-11-09T22:19:08.604Z,10.98
2023-11-09T22:21:35.231Z,11.01
2023-11-09T22:24:01.852Z,10.93
2023-11-09T22:26:28.443Z,11.01
2023-11-09T22:28:55.030Z,11.23
2023-11-09T22:31:21.580Z,11.10
2023-11-09T22:33:48.248Z,11.10
2023-11-09T22:36:14.944Z,11.15
2023-11-09T22:38:41.636Z,10.98
2023-11-09T22:41:08.191Z,11.45
2023-11-09T22:43:34.761Z,11.77
2023-11-09T22:46:01.322Z,11.50
2023-11-09T22:48:27.888Z,11.17
2023-11-09T22:50:54.458Z,10.59
2023-11-09T22:53:21.014Z,10.89
2023-11-09T22:55:47.546Z,10.69
2023-11-09T22:58:14.116Z,11.08
2023-11-09T23:00:40.787Z,11.00
2023-11-09T23:03:07.590Z,11.30
2023-11-09T23:05:34.229Z,11.07
2023-11-09T23:08:00.788Z,11.24
2023-11-09T23:10:27.397Z,11.21
2023-11-09T23:12:53.932Z,11.06
2023-11-09T23:15:20.548Z,10.40
2023-11-09T23:17:47.649Z,10.46
2023-11-09T23:20:14.364Z,10.60
2023-11-09T23:22:40.920Z,10.81
2023-11-09T23:25:07.506Z,10.72
2023-11-09T23:27:34.053Z,10.77
2023-11-09T23:30:00.626Z,11.05
2023-11-09T23:32:27.187Z,10.59
2023-11-09T23:34:53.834Z,10.48
2023-11-09T23:37:20.381Z,10.63
2023-11-09T23:39:46.914Z,10.37
2023-11-09T23:42:13.484Z,10.59
2023-11-09T23:44:40.031Z,10.86
2023-11-09T23:47:06.563Z,10.81
2023-11-09T23:49:33.098Z,10.79
2023-11-09T23:51:59.644Z,11.08
2023-11-09T23:54:26.240Z,10.72
2023-11-09T23:56:52.847Z,10.35
2023-11-09T23:59:19.482Z,10.61
